sensor_id;sensor_type;location;lat;lon;timestamp;P1;durP1;ratioP1;P2;durP2;ratioP2
23449;SDS011;11897;45.438;12.128;2023-12-04T00:01:12;12.03;;;7.63;;
23449;SDS011;11897;45.438;12.128;2023-12-04T00:03:40;11.47;;;7.30;;
23449;SDS011;11897;45.438;12.128;2023-12-04T00:06:09;11.87;;;6.70;;
23449;SDS011;11897;45.438;12.128;2023-12-04T00:08:39;12.83;;;8.00;;
23449;SDS011;11897;45.438;12.128;2023-12-04T00:11:08;10.70;;;7.33;;
23449;SDS011;11897;45.438;12.128;2023-12-04T00:13:35;13.10;;;7.17;;
23449;SDS011;11897;45.438;12.128;2023-12-04T00:16:02;10.87;;;7.17;;
23449;SDS011;11897;45.438;12.128;2023-12-04T00:18:30;11.63;;;7.47;;
23449;SDS011;11897;45.438;12.128;2023-12-04T00:20:58;10.93;;;7.43;;
23449;SDS011;11897;45.438;12.128;2023-12-04T00:23:24;12.63;;;6.90;;
23449;SDS011;11897;45.438;12.128;2023-12-04T00:25:53;11.13;;;7.40;;
23449;SDS011;11897;45.438;12.128;2023-12-04T00:28:19;12.77;;;7.20;;
23449;SDS011;11897;45.438;12.128;2023-12-04T00:30:46;9.70;;;7.40;;
23449;SDS011;11897;45.438;12.128;2023-12-04T00:33:13;10.57;;;7.37;;
23449;SDS011;11897;45.438;12.128;2023-12-04T00:35:40;11.70;;;7.60;;
23449;SDS011;11897;45.438;12.128;2023-12-04T00:38:07;10.90;;;8.00;;
23449;SDS011;11897;45.438;12.128;2023-12-04T00:40:34;11.80;;;7.53;;
23449;SDS011;11897;45.438;12.128;2023-12-04T00:43:02;11.37;;;7.57;;
23449;SDS011;11897;45.438;12.128;2023-12-04T00:45:28;11.80;;;7.53;;
23449;SDS011;11897;45.438;12.128;2023-12-04T00:47:55;14.03;;;7.20;;
23449;SDS011;11897;45.438;12.128;2023-12-04T00:50:22;11.73;;;7.53;;
23449;SDS011;11897;45.438;12.128;2023-12-04T00:52:49;10.17;;;7.43;;
23449;SDS011;11897;45.438;12.128;2023-12-04T00:55:16;10.07;;;7.20;;
23449;SDS011;11897;45.438;12.128;2023-12-04T00:57:42;10.50;;;7.23;;
23449;SDS011;11897;45.438;12.128;2023-12-04T01:00:11;9.90;;;6.60;;
23449;SDS011;11897;45.438;12.128;2023-12-04T01:02:39;10.20;;;6.87;;
23449;SDS011;11897;45.438;12.128;2023-12-04T01:05:06;10.97;;;6.90;;
23449;SDS011;11897;45.438;12.128;2023-12-04T01:07:33;10.17;;;7.20;;
23449;SDS011;11897;45.438;12.128;2023-12-04T01:09:59;10.60;;;6.97;;
23449;SDS011;11897;45.438;12.128;2023-12-04T01:12:26;12.33;;;7.40;;
23449;SDS011;11897;45.438;12.128;2023-12-04T01:14:53;11.87;;;7.23;;
23449;SDS011;11897;45.438;12.128;2023-12-04T01:17:22;13.83;;;7.87;;
23449;SDS011;11897;45.438;12.128;2023-12-04T01:19:52;13.10;;;7.00;;
23449;SDS011;11897;45.438;12.128;2023-12-04T01:22:19;9.97;;;6.60;;
23449;SDS011;11897;45.438;12.128;2023-12-04T01:24:46;11.13;;;7.03;;
23449;SDS011;11897;45.438;12.128;2023-12-04T01:27:12;11.23;;;7.50;;
23449;SDS011;11897;45.438;12.128;2023-12-04T01:29:39;10.03;;;6.73;;
23449;SDS011;11897;45.438;12.128;2023-12-04T01:32:06;10.57;;;7.07;;
23449;SDS011;11897;45.438;12.128;2023-12-04T01:34:34;10.13;;;6.70;;
23449;SDS011;11897;45.438;12.128;2023-12-04T01:37:00;8.10;;;6.00;;
23449;SDS011;11897;45.438;12.128;2023-12-04T01:39:27;10.90;;;6.83;;
23449;SDS011;11897;45.438;12.128;2023-12-04T01:41:54;11.03;;;6.57;;
23449;SDS011;11897;45.438;12.128;2023-12-04T01:44:21;8.27;;;6.00;;
23449;SDS011;11897;45.438;12.128;2023-12-04T01:46:48;9.80;;;5.90;;
23449;SDS011;11897;45.438;12.128;2023-12-04T01:49:15;9.90;;;6.70;;
23449;SDS011;11897;45.438;12.128;2023-12-04T01:51:43;11.67;;;6.40;;
23449;SDS011;11897;45.438;12.128;2023-12-04T01:54:10;9.37;;;6.13;;
23449;SDS011;11897;45.438;12.128;2023-12-04T01:56:37;8.73;;;6.00;;
23449;SDS011;11897;45.438;12.128;2023-12-04T01:59:04;9.00;;;6.17;;
23449;SDS011;11897;45.438;12.128;2023-12-04T02:01:31;9.07;;;6.07;;
23449;SDS011;11897;45.438;12.128;2023-12-04T02:03:58;9.37;;;5.93;;
23449;SDS011;11897;45.438;12.128;2023-12-04T02:06:26;7.97;;;5.53;;
23449;SDS011;11897;45.438;12.128;2023-12-04T02:08:55;11.87;;;6.23;;
23449;SDS011;11897;45.438;12.128;2023-12-04T02:11:24;9.60;;;5.57;;
23449;SDS011;11897;45.438;12.128;2023-12-04T02:13:53;10.13;;;5.90;;
23449;SDS011;11897;45.438;12.128;2023-12-04T02:16:19;9.93;;;5.47;;
23449;SDS011;11897;45.438;12.128;2023-12-04T02:18:49;9.97;;;5.97;;
23449;SDS011;11897;45.438;12.128;2023-12-04T02:21:18;7.43;;;5.63;;
23449;SDS011;11897;45.438;12.128;2023-12-04T02:23:51;8.77;;;5.50;;
23449;SDS011;11897;45.438;12.128;2023-12-04T02:26:22;8.63;;;6.00;;
23449;SDS011;11897;45.438;12.128;2023-12-04T02:28:50;9.87;;;6.10;;
23449;SDS011;11897;45.438;12.128;2023-12-04T02:31:20;9.03;;;5.53;;
23449;SDS011;11897;45.438;12.128;2023-12-04T02:33:48;9.83;;;5.67;;
23449;SDS011;11897;45.438;12.128;2023-12-04T02:36:15;8.93;;;5.90;;
23449;SDS011;11897;45.438;12.128;2023-12-04T02:38:42;7.93;;;5.80;;
23449;SDS011;11897;45.438;12.128;2023-12-04T02:41:11;9.40;;;6.37;;
23449;SDS011;11897;45.438;12.128;2023-12-04T02:43:38;9.17;;;6.10;;
23449;SDS011;11897;45.438;12.128;2023-12-04T02:46:05;8.77;;;5.80;;
23449;SDS011;11897;45.438;12.128;2023-12-04T02:48:31;9.63;;;6.10;;
23449;SDS011;11897;45.438;12.128;2023-12-04T02:50:58;9.43;;;6.23;;
23449;SDS011;11897;45.438;12.128;2023-12-04T02:53:25;9.20;;;6.13;;
23449;SDS011;11897;45.438;12.128;2023-12-04T02:55:52;8.27;;;5.77;;
23449;SDS011;11897;45.438;12.128;2023-12-04T02:58:20;9.83;;;6.00;;
23449;SDS011;11897;45.438;12.128;2023-12-04T03:00:46;9.47;;;6.07;;
23449;SDS011;11897;45.438;12.128;2023-12-04T03:03:13;7.73;;;5.57;;
23449;SDS011;11897;45.438;12.128;2023-12-04T03:05:40;8.73;;;5.87;;
23449;SDS011;11897;45.438;12.128;2023-12-04T03:08:07;8.87;;;5.73;;
23449;SDS011;11897;45.438;12.128;2023-12-04T03:10:34;8.87;;;6.33;;
23449;SDS011;11897;45.438;12.128;2023-12-04T03:13:01;8.20;;;5.67;;
23449;SDS011;11897;45.438;12.128;2023-12-04T03:15:30;9.97;;;5.90;;
23449;SDS011;11897;45.438;12.128;2023-12-04T03:17:57;9.10;;;5.83;;
23449;SDS011;11897;45.438;12.128;2023-12-04T03:20:24;9.87;;;5.87;;
23449;SDS011;11897;45.438;12.128;2023-12-04T03:22:51;9.20;;;5.83;;
23449;SDS011;11897;45.438;12.128;2023-12-04T03:25:18;9.23;;;6.20;;
23449;SDS011;11897;45.438;12.128;2023-12-04T03:27:45;7.70;;;6.00;;
23449;SDS011;11897;45.438;12.128;2023-12-04T03:30:12;9.87;;;6.23;;
23449;SDS011;11897;45.438;12.128;2023-12-04T03:32:40;10.00;;;6.03;;
23449;SDS011;11897;45.438;12.128;2023-12-04T03:35:07;8.33;;;6.27;;
23449;SDS011;11897;45.438;12.128;2023-12-04T03:37:34;9.87;;;6.10;;
23449;SDS011;11897;45.438;12.128;2023-12-04T03:40:00;10.70;;;6.13;;
23449;SDS011;11897;45.438;12.128;2023-12-04T03:42:27;8.97;;;6.13;;
23449;SDS011;11897;45.438;12.128;2023-12-04T03:44:54;9.53;;;6.17;;
23449;SDS011;11897;45.438;12.128;2023-12-04T03:47:21;10.37;;;6.27;;
23449;SDS011;11897;45.438;12.128;2023-12-04T03:49:53;8.57;;;6.20;;
23449;SDS011;11897;45.438;12.128;2023-12-04T03:52:20;9.83;;;6.17;;
23449;SDS011;11897;45.438;12.128;2023-12-04T03:54:46;9.43;;;6.07;;
23449;SDS011;11897;45.438;12.128;2023-12-04T03:57:15;10.07;;;6.03;;
23449;SDS011;11897;45.438;12.128;2023-12-04T03:59:43;9.10;;;5.70;;
23449;SDS011;11897;45.438;12.128;2023-12-04T04:02:09;8.27;;;5.40;;
23449;SDS011;11897;45.438;12.128;2023-12-04T04:04:36;9.03;;;5.80;;
23449;SDS011;11897;45.438;12.128;2023-12-04T04:07:05;8.87;;;5.97;;
23449;SDS011;11897;45.438;12.128;2023-12-04T04:09:31;7.40;;;6.07;;
23449;SDS011;11897;45.438;12.128;2023-12-04T04:11:58;9.83;;;6.17;;
23449;SDS011;11897;45.438;12.128;2023-12-04T04:14:25;11.17;;;6.43;;
23449;SDS011;11897;45.438;12.128;2023-12-04T04:16:51;8.13;;;5.97;;
23449;SDS011;11897;45.438;12.128;2023-12-04T04:19:18;8.77;;;6.27;;
23449;SDS011;11897;45.438;12.128;2023-12-04T04:21:45;10.57;;;6.43;;
23449;SDS011;11897;45.438;12.128;2023-12-04T04:24:13;10.53;;;6.97;;
23449;SDS011;11897;45.438;12.128;2023-12-04T04:26:40;10.83;;;6.40;;
23449;SDS011;11897;45.438;12.128;2023-12-04T04:29:07;10.77;;;6.07;;
23449;SDS011;11897;45.438;12.128;2023-12-04T04:31:34;9.27;;;6.60;;
23449;SDS011;11897;45.438;12.128;2023-12-04T04:34:01;7.93;;;6.40;;
23449;SDS011;11897;45.438;12.128;2023-12-04T04:36:28;9.23;;;6.37;;
23449;SDS011;11897;45.438;12.128;2023-12-04T04:38:55;10.97;;;6.40;;
23449;SDS011;11897;45.438;12.128;2023-12-04T04:41:23;9.50;;;6.20;;
23449;SDS011;11897;45.438;12.128;2023-12-04T04:43:50;11.50;;;6.43;;
23449;SDS011;11897;45.438;12.128;2023-12-04T04:46:17;9.53;;;6.60;;
23449;SDS011;11897;45.438;12.128;2023-12-04T04:48:44;9.23;;;6.40;;
23449;SDS011;11897;45.438;12.128;2023-12-04T04:51:11;9.90;;;6.53;;
23449;SDS011;11897;45.438;12.128;2023-12-04T04:53:38;10.33;;;6.80;;
23449;SDS011;11897;45.438;12.128;2023-12-04T04:56:05;10.77;;;6.33;;
23449;SDS011;11897;45.438;12.128;2023-12-04T04:58:33;10.53;;;6.50;;
23449;SDS011;11897;45.438;12.128;2023-12-04T05:00:59;9.17;;;5.80;;
23449;SDS011;11897;45.438;12.128;2023-12-04T05:03:26;9.80;;;6.60;;
23449;SDS011;11897;45.438;12.128;2023-12-04T05:05:53;10.23;;;7.00;;
23449;SDS011;11897;45.438;12.128;2023-12-04T05:08:19;10.37;;;6.80;;
23449;SDS011;11897;45.438;12.128;2023-12-04T05:10:46;8.10;;;5.67;;
23449;SDS011;11897;45.438;12.128;2023-12-04T05:13:13;10.77;;;6.37;;
23449;SDS011;11897;45.438;12.128;2023-12-04T05:15:42;14.30;;;7.27;;
23449;SDS011;11897;45.438;12.128;2023-12-04T05:18:10;10.50;;;6.50;;
23449;SDS011;11897;45.438;12.128;2023-12-04T05:20:36;9.67;;;6.67;;
23449;SDS011;11897;45.438;12.128;2023-12-04T05:23:03;10.97;;;6.53;;
23449;SDS011;11897;45.438;12.128;2023-12-04T05:25:30;9.90;;;6.80;;
23449;SDS011;11897;45.438;12.128;2023-12-04T05:27:57;9.43;;;6.97;;
23449;SDS011;11897;45.438;12.128;2023-12-04T05:30:23;8.93;;;6.13;;
23449;SDS011;11897;45.438;12.128;2023-12-04T05:32:51;12.37;;;6.93;;
23449;SDS011;11897;45.438;12.128;2023-12-04T05:35:22;8.83;;;6.57;;
23449;SDS011;11897;45.438;12.128;2023-12-04T05:37:49;10.00;;;6.47;;
23449;SDS011;11897;45.438;12.128;2023-12-04T05:40:16;10.73;;;6.43;;
23449;SDS011;11897;45.438;12.128;2023-12-04T05:42:43;11.30;;;7.33;;
23449;SDS011;11897;45.438;12.128;2023-12-04T05:45:10;8.47;;;6.43;;
23449;SDS011;11897;45.438;12.128;2023-12-04T05:47:36;11.30;;;6.87;;
23449;SDS011;11897;45.438;12.128;2023-12-04T05:50:05;11.13;;;7.27;;
23449;SDS011;11897;45.438;12.128;2023-12-04T05:52:32;9.83;;;7.17;;
23449;SDS011;11897;45.438;12.128;2023-12-04T05:54:59;10.50;;;6.80;;
23449;SDS011;11897;45.438;12.128;2023-12-04T05:57:26;13.67;;;8.37;;
23449;SDS011;11897;45.438;12.128;2023-12-04T05:59:53;12.47;;;7.40;;
23449;SDS011;11897;45.438;12.128;2023-12-04T06:02:22;12.93;;;7.83;;
23449;SDS011;11897;45.438;12.128;2023-12-04T06:04:49;12.13;;;7.93;;
23449;SDS011;11897;45.438;12.128;2023-12-04T06:07:20;12.63;;;8.10;;
23449;SDS011;11897;45.438;12.128;2023-12-04T06:09:46;10.20;;;7.10;;
23449;SDS011;11897;45.438;12.128;2023-12-04T06:12:13;13.93;;;7.90;;
23449;SDS011;11897;45.438;12.128;2023-12-04T06:14:40;12.67;;;7.33;;
23449;SDS011;11897;45.438;12.128;2023-12-04T06:17:07;12.40;;;7.77;;
23449;SDS011;11897;45.438;12.128;2023-12-04T06:19:37;13.13;;;8.17;;
23449;SDS011;11897;45.438;12.128;2023-12-04T06:22:07;11.70;;;8.13;;
23449;SDS011;11897;45.438;12.128;2023-12-04T06:24:38;12.27;;;8.33;;
23449;SDS011;11897;45.438;12.128;2023-12-04T06:27:05;12.13;;;8.30;;
23449;SDS011;11897;45.438;12.128;2023-12-04T06:29:34;15.63;;;7.83;;
23449;SDS011;11897;45.438;12.128;2023-12-04T06:32:03;12.13;;;7.90;;
23449;SDS011;11897;45.438;12.128;2023-12-04T06:34:30;11.27;;;7.93;;
23449;SDS011;11897;45.438;12.128;2023-12-04T06:36:59;15.93;;;7.93;;
23449;SDS011;11897;45.438;12.128;2023-12-04T06:39:27;11.33;;;8.20;;
23449;SDS011;11897;45.438;12.128;2023-12-04T06:42:01;13.03;;;7.80;;
23449;SDS011;11897;45.438;12.128;2023-12-04T06:44:27;12.37;;;8.20;;
23449;SDS011;11897;45.438;12.128;2023-12-04T06:46:54;11.90;;;8.57;;
23449;SDS011;11897;45.438;12.128;2023-12-04T06:49:21;13.07;;;9.00;;
23449;SDS011;11897;45.438;12.128;2023-12-04T06:51:58;12.93;;;8.70;;
23449;SDS011;11897;45.438;12.128;2023-12-04T06:54:25;19.47;;;9.67;;
23449;SDS011;11897;45.438;12.128;2023-12-04T06:56:53;14.57;;;9.10;;
23449;SDS011;11897;45.438;12.128;2023-12-04T06:59:21;14.73;;;9.30;;
23449;SDS011;11897;45.438;12.128;2023-12-04T07:01:48;15.77;;;9.73;;
23449;SDS011;11897;45.438;12.128;2023-12-04T07:04:15;14.77;;;9.47;;
23449;SDS011;11897;45.438;12.128;2023-12-04T07:06:46;15.33;;;9.57;;
23449;SDS011;11897;45.438;12.128;2023-12-04T07:09:13;13.60;;;9.00;;
23449;SDS011;11897;45.438;12.128;2023-12-04T07:11:39;13.43;;;8.43;;
23449;SDS011;11897;45.438;12.128;2023-12-04T07:14:06;14.53;;;9.10;;
23449;SDS011;11897;45.438;12.128;2023-12-04T07:16:39;14.07;;;9.30;;
23449;SDS011;11897;45.438;12.128;2023-12-04T07:19:08;15.13;;;9.33;;
23449;SDS011;11897;45.438;12.128;2023-12-04T07:21:36;13.23;;;9.10;;
23449;SDS011;11897;45.438;12.128;2023-12-04T07:24:04;18.47;;;10.07;;
23449;SDS011;11897;45.438;12.128;2023-12-04T07:26:31;14.67;;;8.57;;
23449;SDS011;11897;45.438;12.128;2023-12-04T07:28:58;17.53;;;9.90;;
23449;SDS011;11897;45.438;12.128;2023-12-04T07:31:25;17.37;;;9.80;;
23449;SDS011;11897;45.438;12.128;2023-12-04T07:33:53;15.87;;;9.13;;
23449;SDS011;11897;45.438;12.128;2023-12-04T07:36:20;17.20;;;9.07;;
23449;SDS011;11897;45.438;12.128;2023-12-04T07:38:47;15.83;;;8.77;;
23449;SDS011;11897;45.438;12.128;2023-12-04T07:41:17;15.00;;;9.40;;
23449;SDS011;11897;45.438;12.128;2023-12-04T07:43:44;13.77;;;9.67;;
23449;SDS011;11897;45.438;12.128;2023-12-04T07:46:10;13.50;;;9.33;;
23449;SDS011;11897;45.438;12.128;2023-12-04T07:48:39;16.30;;;8.73;;
23449;SDS011;11897;45.438;12.128;2023-12-04T07:51:09;14.20;;;8.70;;
23449;SDS011;11897;45.438;12.128;2023-12-04T07:53:38;13.77;;;9.20;;
23449;SDS011;11897;45.438;12.128;2023-12-04T07:56:05;17.97;;;8.57;;
23449;SDS011;11897;45.438;12.128;2023-12-04T07:58:32;15.90;;;9.40;;
23449;SDS011;11897;45.438;12.128;2023-12-04T08:00:59;11.63;;;8.43;;
23449;SDS011;11897;45.438;12.128;2023-12-04T08:03:26;15.93;;;9.73;;
23449;SDS011;11897;45.438;12.128;2023-12-04T08:05:54;13.93;;;9.57;;
23449;SDS011;11897;45.438;12.128;2023-12-04T08:08:22;13.93;;;8.87;;
23449;SDS011;11897;45.438;12.128;2023-12-04T08:10:48;12.87;;;9.23;;
23449;SDS011;11897;45.438;12.128;2023-12-04T08:13:15;13.10;;;9.03;;
23449;SDS011;11897;45.438;12.128;2023-12-04T08:15:42;12.60;;;9.13;;
23449;SDS011;11897;45.438;12.128;2023-12-04T08:18:17;14.67;;;9.60;;
23449;SDS011;11897;45.438;12.128;2023-12-04T08:20:46;15.10;;;10.13;;
23449;SDS011;11897;45.438;12.128;2023-12-04T08:23:13;15.50;;;9.63;;
23449;SDS011;11897;45.438;12.128;2023-12-04T08:25:41;12.73;;;8.67;;
23449;SDS011;11897;45.438;12.128;2023-12-04T08:28:08;14.23;;;8.80;;
23449;SDS011;11897;45.438;12.128;2023-12-04T08:30:35;14.87;;;8.90;;
23449;SDS011;11897;45.438;12.128;2023-12-04T08:33:02;10.97;;;8.03;;
23449;SDS011;11897;45.438;12.128;2023-12-04T08:35:29;11.37;;;7.87;;
23449;SDS011;11897;45.438;12.128;2023-12-04T08:37:57;11.13;;;8.00;;
23449;SDS011;11897;45.438;12.128;2023-12-04T08:40:24;10.97;;;7.87;;
23449;SDS011;11897;45.438;12.128;2023-12-04T08:42:52;12.63;;;8.23;;
23449;SDS011;11897;45.438;12.128;2023-12-04T08:45:21;12.27;;;7.97;;
23449;SDS011;11897;45.438;12.128;2023-12-04T08:47:48;15.90;;;8.73;;
23449;SDS011;11897;45.438;12.128;2023-12-04T08:50:15;11.00;;;7.87;;
23449;SDS011;11897;45.438;12.128;2023-12-04T08:52:42;14.60;;;8.33;;
23449;SDS011;11897;45.438;12.128;2023-12-04T08:55:10;10.57;;;7.23;;
23449;SDS011;11897;45.438;12.128;2023-12-04T08:57:37;10.03;;;7.47;;
23449;SDS011;11897;45.438;12.128;2023-12-04T09:00:05;10.80;;;7.33;;
23449;SDS011;11897;45.438;12.128;2023-12-04T09:02:33;13.30;;;8.33;;
23449;SDS011;11897;45.438;12.128;2023-12-04T09:05:00;15.97;;;8.87;;
23449;SDS011;11897;45.438;12.128;2023-12-04T09:07:27;13.20;;;8.13;;
23449;SDS011;11897;45.438;12.128;2023-12-04T09:09:53;13.60;;;8.27;;
23449;SDS011;11897;45.438;12.128;2023-12-04T09:12:21;12.90;;;8.53;;
23449;SDS011;11897;45.438;12.128;2023-12-04T09:14:47;11.40;;;8.43;;
23449;SDS011;11897;45.438;12.128;2023-12-04T09:17:15;12.57;;;8.17;;
23449;SDS011;11897;45.438;12.128;2023-12-04T09:19:43;14.23;;;7.90;;
23449;SDS011;11897;45.438;12.128;2023-12-04T09:22:10;14.73;;;7.70;;
23449;SDS011;11897;45.438;12.128;2023-12-04T09:24:36;12.30;;;7.43;;
23449;SDS011;11897;45.438;12.128;2023-12-04T09:27:04;10.33;;;6.93;;
23449;SDS011;11897;45.438;12.128;2023-12-04T09:29:32;12.37;;;7.67;;
23449;SDS011;11897;45.438;12.128;2023-12-04T09:31:59;11.53;;;6.67;;
23449;SDS011;11897;45.438;12.128;2023-12-04T09:34:27;10.63;;;6.77;;
23449;SDS011;11897;45.438;12.128;2023-12-04T09:36:54;16.10;;;9.23;;
23449;SDS011;11897;45.438;12.128;2023-12-04T09:39:21;13.60;;;8.33;;
23449;SDS011;11897;45.438;12.128;2023-12-04T09:41:47;11.67;;;7.47;;
23449;SDS011;11897;45.438;12.128;2023-12-04T09:44:14;9.87;;;6.93;;
23449;SDS011;11897;45.438;12.128;2023-12-04T09:46:41;10.43;;;6.10;;
23449;SDS011;11897;45.438;12.128;2023-12-04T09:49:10;9.00;;;6.07;;
23449;SDS011;11897;45.438;12.128;2023-12-04T09:51:38;11.40;;;6.37;;
23449;SDS011;11897;45.438;12.128;2023-12-04T09:54:05;10.47;;;6.07;;
23449;SDS011;11897;45.438;12.128;2023-12-04T09:56:33;9.20;;;5.83;;
23449;SDS011;11897;45.438;12.128;2023-12-04T09:59:00;9.00;;;5.57;;
23449;SDS011;11897;45.438;12.128;2023-12-04T10:01:28;9.10;;;6.17;;
23449;SDS011;11897;45.438;12.128;2023-12-04T10:03:55;13.57;;;5.83;;
23449;SDS011;11897;45.438;12.128;2023-12-04T10:06:25;9.00;;;5.80;;
23449;SDS011;11897;45.438;12.128;2023-12-04T10:08:54;9.47;;;5.80;;
23449;SDS011;11897;45.438;12.128;2023-12-04T10:11:22;6.93;;;5.40;;
23449;SDS011;11897;45.438;12.128;2023-12-04T10:13:49;9.37;;;5.57;;
23449;SDS011;11897;45.438;12.128;2023-12-04T10:16:30;8.77;;;5.40;;
23449;SDS011;11897;45.438;12.128;2023-12-04T10:18:57;7.13;;;5.30;;
23449;SDS011;11897;45.438;12.128;2023-12-04T10:21:28;5.73;;;4.17;;
23449;SDS011;11897;45.438;12.128;2023-12-04T10:23:59;6.80;;;4.77;;
23449;SDS011;11897;45.438;12.128;2023-12-04T10:26:26;6.77;;;4.33;;
23449;SDS011;11897;45.438;12.128;2023-12-04T10:29:03;6.37;;;4.40;;
23449;SDS011;11897;45.438;12.128;2023-12-04T10:31:31;10.50;;;4.80;;
23449;SDS011;11897;45.438;12.128;2023-12-04T10:33:58;6.40;;;4.77;;
23449;SDS011;11897;45.438;12.128;2023-12-04T10:36:25;6.43;;;4.70;;
23449;SDS011;11897;45.438;12.128;2023-12-04T10:38:57;8.00;;;5.03;;
23449;SDS011;11897;45.438;12.128;2023-12-04T10:41:26;6.43;;;4.10;;
23449;SDS011;11897;45.438;12.128;2023-12-04T10:43:53;7.30;;;4.63;;
23449;SDS011;11897;45.438;12.128;2023-12-04T10:46:22;6.73;;;4.60;;
23449;SDS011;11897;45.438;12.128;2023-12-04T10:48:50;6.17;;;4.50;;
23449;SDS011;11897;45.438;12.128;2023-12-04T10:51:18;13.87;;;8.80;;
23449;SDS011;11897;45.438;12.128;2023-12-04T10:53:47;12.17;;;7.50;;
23449;SDS011;11897;45.438;12.128;2023-12-04T10:56:15;7.10;;;4.60;;
23449;SDS011;11897;45.438;12.128;2023-12-04T10:58:45;6.50;;;4.50;;
23449;SDS011;11897;45.438;12.128;2023-12-04T11:01:14;7.10;;;4.23;;
23449;SDS011;11897;45.438;12.128;2023-12-04T11:03:43;5.60;;;4.23;;
23449;SDS011;11897;45.438;12.128;2023-12-04T11:06:11;5.93;;;4.23;;
23449;SDS011;11897;45.438;12.128;2023-12-04T11:08:39;7.47;;;4.73;;
23449;SDS011;11897;45.438;12.128;2023-12-04T11:11:09;7.17;;;4.43;;
23449;SDS011;11897;45.438;12.128;2023-12-04T11:13:39;6.30;;;4.73;;
23449;SDS011;11897;45.438;12.128;2023-12-04T11:16:12;7.43;;;4.77;;
23449;SDS011;11897;45.438;12.128;2023-12-04T11:18:39;7.60;;;4.47;;
23449;SDS011;11897;45.438;12.128;2023-12-04T11:21:10;7.67;;;4.67;;
23449;SDS011;11897;45.438;12.128;2023-12-04T11:23:40;7.70;;;4.50;;
23449;SDS011;11897;45.438;12.128;2023-12-04T11:26:08;6.83;;;4.67;;
23449;SDS011;11897;45.438;12.128;2023-12-04T11:28:35;7.60;;;4.97;;
23449;SDS011;11897;45.438;12.128;2023-12-04T11:31:03;7.97;;;5.13;;
23449;SDS011;11897;45.438;12.128;2023-12-04T11:33:35;8.27;;;5.13;;
23449;SDS011;11897;45.438;12.128;2023-12-04T11:36:06;7.43;;;5.70;;
23449;SDS011;11897;45.438;12.128;2023-12-04T11:38:33;7.47;;;4.87;;
23449;SDS011;11897;45.438;12.128;2023-12-04T11:41:06;7.63;;;5.40;;
23449;SDS011;11897;45.438;12.128;2023-12-04T11:43:38;9.80;;;5.13;;
23449;SDS011;11897;45.438;12.128;2023-12-04T11:46:08;8.73;;;5.53;;
23449;SDS011;11897;45.438;12.128;2023-12-04T11:48:37;8.33;;;5.70;;
23449;SDS011;11897;45.438;12.128;2023-12-04T11:51:05;15.43;;;9.87;;
23449;SDS011;11897;45.438;12.128;2023-12-04T11:53:32;13.77;;;7.27;;
23449;SDS011;11897;45.438;12.128;2023-12-04T11:55:59;9.13;;;5.50;;
23449;SDS011;11897;45.438;12.128;2023-12-04T11:58:39;7.17;;;4.57;;
23449;SDS011;11897;45.438;12.128;2023-12-04T12:01:07;7.60;;;5.23;;
23449;SDS011;11897;45.438;12.128;2023-12-04T12:03:34;9.53;;;5.70;;
23449;SDS011;11897;45.438;12.128;2023-12-04T12:08:56;7.23;;;5.20;;
23449;SDS011;11897;45.438;12.128;2023-12-04T12:11:23;8.07;;;5.17;;
23449;SDS011;11897;45.438;12.128;2023-12-04T12:13:50;7.47;;;4.70;;
23449;SDS011;11897;45.438;12.128;2023-12-04T12:16:17;12.97;;;5.87;;
23449;SDS011;11897;45.438;12.128;2023-12-04T12:18:44;8.30;;;5.23;;
23449;SDS011;11897;45.438;12.128;2023-12-04T12:21:11;8.43;;;5.13;;
23449;SDS011;11897;45.438;12.128;2023-12-04T12:23:38;7.10;;;5.00;;
23449;SDS011;11897;45.438;12.128;2023-12-04T12:26:06;7.20;;;5.00;;
23449;SDS011;11897;45.438;12.128;2023-12-04T12:28:34;9.87;;;5.00;;
23449;SDS011;11897;45.438;12.128;2023-12-04T12:31:01;7.93;;;5.43;;
23449;SDS011;11897;45.438;12.128;2023-12-04T12:33:28;7.53;;;5.20;;
23449;SDS011;11897;45.438;12.128;2023-12-04T12:35:55;7.70;;;5.23;;
23449;SDS011;11897;45.438;12.128;2023-12-04T12:38:22;7.70;;;4.90;;
23449;SDS011;11897;45.438;12.128;2023-12-04T12:40:49;8.43;;;5.50;;
23449;SDS011;11897;45.438;12.128;2023-12-04T12:43:19;7.37;;;5.10;;
23449;SDS011;11897;45.438;12.128;2023-12-04T12:45:46;10.60;;;4.67;;
23449;SDS011;11897;45.438;12.128;2023-12-04T12:48:14;7.20;;;5.20;;
23449;SDS011;11897;45.438;12.128;2023-12-04T12:50:42;8.40;;;5.17;;
23449;SDS011;11897;45.438;12.128;2023-12-04T12:53:10;6.33;;;4.90;;
23449;SDS011;11897;45.438;12.128;2023-12-04T12:55:37;8.67;;;5.47;;
23449;SDS011;11897;45.438;12.128;2023-12-04T12:58:04;8.20;;;5.30;;
23449;SDS011;11897;45.438;12.128;2023-12-04T13:00:34;9.77;;;5.03;;
23449;SDS011;11897;45.438;12.128;2023-12-04T13:03:00;6.00;;;4.80;;
23449;SDS011;11897;45.438;12.128;2023-12-04T13:05:27;10.03;;;4.87;;
23449;SDS011;11897;45.438;12.128;2023-12-04T13:07:54;6.30;;;4.70;;
23449;SDS011;11897;45.438;12.128;2023-12-04T13:10:22;8.50;;;4.57;;
23449;SDS011;11897;45.438;12.128;2023-12-04T13:12:50;6.57;;;4.93;;
23449;SDS011;11897;45.438;12.128;2023-12-04T13:15:18;6.57;;;5.23;;
23449;SDS011;11897;45.438;12.128;2023-12-04T13:17:46;7.20;;;5.17;;
23449;SDS011;11897;45.438;12.128;2023-12-04T13:20:13;7.50;;;5.13;;
23449;SDS011;11897;45.438;12.128;2023-12-04T13:22:41;9.80;;;4.97;;
23449;SDS011;11897;45.438;12.128;2023-12-04T13:25:08;7.03;;;4.97;;
23449;SDS011;11897;45.438;12.128;2023-12-04T13:27:35;7.63;;;5.33;;
23449;SDS011;11897;45.438;12.128;2023-12-04T13:30:04;10.73;;;5.60;;
23449;SDS011;11897;45.438;12.128;2023-12-04T13:32:31;10.83;;;5.47;;
23449;SDS011;11897;45.438;12.128;2023-12-04T13:35:00;8.47;;;5.57;;
23449;SDS011;11897;45.438;12.128;2023-12-04T13:37:26;7.73;;;5.30;;
23449;SDS011;11897;45.438;12.128;2023-12-04T13:39:53;10.17;;;5.57;;
23449;SDS011;11897;45.438;12.128;2023-12-04T13:42:23;8.17;;;5.23;;
23449;SDS011;11897;45.438;12.128;2023-12-04T13:45:07;8.40;;;5.40;;
23449;SDS011;11897;45.438;12.128;2023-12-04T13:47:35;7.97;;;5.60;;
23449;SDS011;11897;45.438;12.128;2023-12-04T13:50:04;9.07;;;5.93;;
23449;SDS011;11897;45.438;12.128;2023-12-04T13:52:34;9.10;;;5.97;;
23449;SDS011;11897;45.438;12.128;2023-12-04T13:55:02;9.73;;;5.83;;
23449;SDS011;11897;45.438;12.128;2023-12-04T13:57:37;15.37;;;9.00;;
23449;SDS011;11897;45.438;12.128;2023-12-04T14:00:18;8.93;;;5.93;;
23449;SDS011;11897;45.438;12.128;2023-12-04T14:02:45;12.60;;;5.87;;
23449;SDS011;11897;45.438;12.128;2023-12-04T14:05:13;11.33;;;6.40;;
23449;SDS011;11897;45.438;12.128;2023-12-04T14:07:41;8.00;;;6.03;;
23449;SDS011;11897;45.438;12.128;2023-12-04T14:10:09;6.80;;;5.47;;
23449;SDS011;11897;45.438;12.128;2023-12-04T14:12:36;7.23;;;5.83;;
23449;SDS011;11897;45.438;12.128;2023-12-04T14:15:05;11.37;;;5.73;;
23449;SDS011;11897;45.438;12.128;2023-12-04T14:17:32;7.13;;;5.07;;
23449;SDS011;11897;45.438;12.128;2023-12-04T14:19:59;25.03;;;15.20;;
23449;SDS011;11897;45.438;12.128;2023-12-04T14:22:29;8.87;;;6.33;;
23449;SDS011;11897;45.438;12.128;2023-12-04T14:24:56;8.10;;;6.03;;
23449;SDS011;11897;45.438;12.128;2023-12-04T14:27:23;9.57;;;6.00;;
23449;SDS011;11897;45.438;12.128;2023-12-04T14:29:50;8.67;;;6.17;;
23449;SDS011;11897;45.438;12.128;2023-12-04T14:32:16;9.50;;;6.33;;
23449;SDS011;11897;45.438;12.128;2023-12-04T14:34:45;7.90;;;5.83;;